Time;durP1;ratioP1;P1;durP2;ratioP2;P2;SDS_P1;SDS_P2;PMS_P1;PMS_P2;Temp;Humidity;BMP_temperature;BMP_pressure;BME280_temperature;BME280_humidity;BME280_pressure;Samples;Min_cycle;Max_cycle;Signal;HPM_P1;HPM_P2
2022/12/26 00:01:01;;;;;;;87.80;38.97;;;8.60;99.90;;;;;;4930384;28;20129;-84
2022/12/26 00:03:27;;;;;;;160.73;47.33;;;8.50;99.90;;;;;;4910915;28;20051;-84
2022/12/26 00:05:52;;;;;;;116.00;42.17;;;8.50;99.90;;;;;;4913396;28;20425;-84
2022/12/26 00:08:18;;;;;;;127.03;43.00;;;8.50;99.90;;;;;;4919766;29;20044;-84
2022/12/26 00:10:44;;;;;;;95.47;38.95;;;8.50;99.90;;;;;;4912282;28;20051;-84
2022/12/26 00:13:10;;;;;;;89.93;37.92;;;8.60;99.90;;;;;;4916493;28;20138;-84
2022/12/26 00:15:39;;;;;;;186.63;50.25;;;8.50;99.90;;;;;;4931227;28;20126;-84
2022/12/26 00:18:05;;;;;;;153.93;46.45;;;8.50;99.90;;;;;;4911769;29;20135;-84
2022/12/26 00:20:31;;;;;;;148.68;46.45;;;8.50;99.90;;;;;;4913265;28;20134;-84
2022/12/26 00:22:57;;;;;;;104.63;41.83;;;8.50;99.90;;;;;;4908056;28;20047;-84
2022/12/26 00:25:22;;;;;;;77.55;37.35;;;8.50;99.90;;;;;;4916393;28;20054;-84
2022/12/26 00:27:48;;;;;;;153.88;48.53;;;8.50;99.90;;;;;;4924856;28;20132;-84
2022/12/26 00:30:14;;;;;;;91.55;39.10;;;8.50;99.90;;;;;;4915832;28;20517;-84
2022/12/26 00:32:40;;;;;;;88.75;36.50;;;8.50;99.90;;;;;;4917955;28;20075;-84
2022/12/26 00:35:06;;;;;;;119.97;41.30;;;8.50;99.90;;;;;;4921189;28;20039;-84
2022/12/26 00:37:32;;;;;;;227.13;50.28;;;8.50;99.90;;;;;;4934968;28;20039;-84
2022/12/26 00:39:58;;;;;;;165.63;44.53;;;8.60;99.90;;;;;;4901316;28;20114;-73
2022/12/26 00:42:24;;;;;;;114.60;40.58;;;8.60;99.90;;;;;;4916715;28;20471;-72
2022/12/26 00:44:49;;;;;;;127.10;39.17;;;8.60;99.90;;;;;;4914060;29;20498;-73
2022/12/26 00:47:15;;;;;;;88.93;35.03;;;8.60;99.90;;;;;;4895729;29;20071;-72
2022/12/26 00:49:41;;;;;;;67.65;32.58;;;8.60;99.90;;;;;;4899873;29;20039;-73
2022/12/26 00:52:07;;;;;;;178.80;45.03;;;8.60;99.90;;;;;;4900572;28;20050;-72
2022/12/26 00:54:33;;;;;;;86.63;34.88;;;8.60;99.90;;;;;;4901543;29;20063;-72
2022/12/26 00:56:59;;;;;;;89.95;35.75;;;8.60;99.90;;;;;;4899226;28;20058;-73
2022/12/26 00:59:24;;;;;;;122.47;38.65;;;8.60;99.90;;;;;;4893740;29;20048;-72
2022/12/26 01:01:50;;;;;;;182.48;43.92;;;8.60;99.90;;;;;;4927953;28;20776;-72
2022/12/26 01:04:16;;;;;;;123.78;39.33;;;8.60;99.90;;;;;;4894701;28;20277;-73
2022/12/26 01:06:42;;;;;;;168.60;42.90;;;8.60;99.90;;;;;;4896963;28;20051;-72
2022/12/26 01:09:10;;;;;;;96.97;35.80;;;8.60;99.90;;;;;;4895220;28;20036;-72
2022/12/26 01:11:39;;;;;;;74.57;33.45;;;8.60;99.90;;;;;;4914685;28;20545;-72
2022/12/26 01:14:08;;;;;;;135.48;40.40;;;8.60;99.90;;;;;;4913154;28;20521;-85
2022/12/26 01:16:34;;;;;;;70.10;32.05;;;8.70;99.90;;;;;;4911289;28;20142;-84
2022/12/26 01:19:00;;;;;;;79.22;32.97;;;8.60;99.90;;;;;;4898767;28;20094;-84
2022/12/26 01:21:26;;;;;;;79.15;31.00;;;8.60;99.90;;;;;;4932002;29;20378;-84
2022/12/26 01:23:52;;;;;;;66.85;29.23;;;8.60;99.90;;;;;;4935569;29;20043;-84
2022/12/26 01:26:17;;;;;;;73.78;29.08;;;8.60;99.90;;;;;;4913728;29;20055;-85
2022/12/26 01:28:43;;;;;;;72.68;28.63;;;8.60;99.90;;;;;;4928806;29;20528;-84
2022/12/26 01:31:09;;;;;;;88.55;30.83;;;8.60;99.90;;;;;;4902614;28;20107;-84
2022/12/26 01:33:35;;;;;;;70.35;28.05;;;8.70;99.90;;;;;;4910715;29;20050;-85
2022/12/26 01:36:01;;;;;;;62.97;26.48;;;8.70;99.90;;;;;;4909356;28;20043;-83
2022/12/26 01:38:27;;;;;;;65.35;26.88;;;8.60;99.90;;;;;;4939023;28;20117;-85
2022/12/26 01:41:39;;;;;;;81.65;29.45;;;8.70;99.90;;;;;;4914505;29;20047;-85
2022/12/26 01:43:57;;;;;;;102.93;33.15;;;8.70;99.90;;;;;;4925416;29;20089;-84
2022/12/26 01:46:40;;;;;;;83.13;29.67;;;8.70;99.90;;;;;;4924559;28;20576;-84
2022/12/26 01:49:19;;;;;;;91.05;31.52;;;8.70;99.90;;;;;;4911826;29;20066;-84
2022/12/26 01:51:51;;;;;;;103.25;34.03;;;8.70;99.90;;;;;;4928932;28;20122;-86
2022/12/26 01:54:18;;;;;;;95.40;33.35;;;8.70;99.90;;;;;;4936589;28;20367;-84
2022/12/26 01:56:45;;;;;;;81.82;31.58;;;8.70;99.90;;;;;;4935773;28;20047;-74
2022/12/26 01:59:17;;;;;;;74.32;30.65;;;8.70;99.90;;;;;;4923235;28;20042;-74
2022/12/26 02:01:46;;;;;;;81.43;32.97;;;8.70;99.90;;;;;;4909164;28;20051;-73
2022/12/26 02:07:03;;;;;;;65.53;31.23;;;8.80;99.90;;;;;;4932530;28;20142;-73
2022/12/26 02:09:30;;;;;;;87.43;35.10;;;8.80;99.90;;;;;;4933449;28;20423;-74
2022/12/26 02:12:13;;;;;;;87.80;36.33;;;8.80;99.90;;;;;;4933196;28;20047;-74
2022/12/26 02:14:39;;;;;;;82.30;35.53;;;8.80;99.90;;;;;;4931015;28;20043;-74
2022/12/26 02:17:06;;;;;;;84.72;35.65;;;8.80;99.90;;;;;;4915879;28;20264;-74
2022/12/26 02:19:55;;;;;;;85.75;36.53;;;8.80;99.90;;;;;;4929150;28;20089;-73
2022/12/26 02:22:39;;;;;;;74.43;35.80;;;8.80;99.90;;;;;;4925198;28;20067;-73
2022/12/26 02:25:52;;;;;;;70.78;34.65;;;8.80;99.90;;;;;;4932234;28;20051;-73
2022/12/26 02:28:46;;;;;;;98.55;38.42;;;8.80;99.90;;;;;;4910326;28;20043;-73
2022/12/26 02:31:15;;;;;;;75.97;36.25;;;8.80;99.90;;;;;;4929032;28;20062;-73
2022/12/26 02:33:53;;;;;;;70.63;35.83;;;8.80;99.90;;;;;;4915926;29;20418;-73
2022/12/26 02:36:32;;;;;;;83.97;38.45;;;8.80;99.90;;;;;;4923366;29;20786;-73
2022/12/26 02:39:13;;;;;;;72.07;36.00;;;8.80;99.90;;;;;;4944271;28;20055;-73
2022/12/26 02:42:04;;;;;;;63.30;33.42;;;8.80;99.90;;;;;;4920173;28;20317;-74
2022/12/26 02:47:45;;;;;;;90.35;40.33;;;8.80;99.90;;;;;;4927533;29;20047;-74
2022/12/26 03:14:54;;;;;;;79.53;45.50;;;9.00;99.90;;;;;;4935410;28;20043;-74
2022/12/26 03:17:32;;;;;;;79.82;45.70;;;9.00;99.90;;;;;;4923210;28;20055;-73
2022/12/26 03:20:07;;;;;;;82.32;47.38;;;9.00;99.90;;;;;;4930743;28;20092;-73
2022/12/26 03:22:44;;;;;;;89.47;47.90;;;9.00;99.90;;;;;;4942700;28;20083;-74
2022/12/26 03:27:59;;;;;;;91.95;47.63;;;9.00;99.90;;;;;;4926542;29;20059;-74
2022/12/26 03:34:16;;;;;;;84.15;48.25;;;9.00;99.90;;;;;;4926113;29;20138;-85
2022/12/26 03:35:56;;;;;;;82.38;48.20;;;9.00;99.90;;;;;;4914539;29;20055;-85
2022/12/26 03:38:54;;;;;;;77.72;45.92;;;9.00;99.90;;;;;;4907355;29;20043;-85
2022/12/26 04:19:35;;;;;;;97.25;52.97;;;9.00;99.90;;;;;;4913887;29;20062;-85
2022/12/26 04:44:44;;;;;;;63.80;43.17;;;9.00;99.90;;;;;;4926746;28;20079;-83
2022/12/26 04:47:10;;;;;;;66.93;44.10;;;9.00;99.90;;;;;;4932419;28;20126;-85
2022/12/26 04:55:15;;;;;;;53.97;41.30;;;9.00;99.90;;;;;;4937723;29;20047;-84
2022/12/26 04:57:41;;;;;;;53.55;39.75;;;9.00;99.90;;;;;;4927101;29;20122;-83
2022/12/26 05:00:08;;;;;;;55.15;39.63;;;8.90;99.90;;;;;;4903337;29;20176;-84
2022/12/26 05:10:46;;;;;;;48.10;37.38;;;8.90;99.90;;;;;;4913278;29;20048;-83
2022/12/26 05:13:13;;;;;;;52.25;39.95;;;8.90;99.90;;;;;;4900516;29;20445;-73
2022/12/26 05:29:30;;;;;;;40.95;34.22;;;8.90;99.90;;;;;;4934191;28;20059;-81
2022/12/26 05:31:55;;;;;;;47.33;37.35;;;8.80;99.90;;;;;;4915258;29;20515;-84
2022/12/26 05:34:21;;;;;;;45.47;36.13;;;8.80;99.90;;;;;;4880671;28;20090;-83
2022/12/26 05:36:55;;;;;;;41.88;36.38;;;8.80;99.90;;;;;;4909766;28;20541;-83
2022/12/26 05:39:21;;;;;;;39.95;33.58;;;8.80;99.90;;;;;;4911492;28;20133;-84
2022/12/26 05:41:47;;;;;;;40.35;33.58;;;8.80;99.90;;;;;;4908817;29;20040;-84
2022/12/26 05:44:13;;;;;;;40.70;33.92;;;8.80;99.90;;;;;;4912092;28;20297;-84
2022/12/26 05:46:41;;;;;;;38.88;33.63;;;8.80;99.90;;;;;;4924896;29;20142;-83
2022/12/26 05:49:07;;;;;;;38.67;32.70;;;8.80;99.90;;;;;;4931504;28;20055;-82
2022/12/26 05:51:34;;;;;;;40.60;35.63;;;8.80;99.90;;;;;;4930523;28;20051;-83
2022/12/26 05:53:59;;;;;;;41.08;34.05;;;8.80;99.90;;;;;;4917534;29;20507;-82
2022/12/26 05:56:25;;;;;;;40.58;33.85;;;8.80;99.90;;;;;;4913795;29;20075;-83
2022/12/26 05:58:56;;;;;;;39.88;33.42;;;8.80;99.90;;;;;;4912694;28;20461;-83
2022/12/26 06:01:23;;;;;;;43.15;35.88;;;8.80;99.90;;;;;;4926900;29;20398;-83
2022/12/26 06:03:55;;;;;;;42.58;34.85;;;8.80;99.90;;;;;;4936483;28;20035;-83
2022/12/26 06:06:22;;;;;;;41.00;34.35;;;8.80;99.90;;;;;;4922510;28;20043;-73
2022/12/26 06:08:49;;;;;;;40.05;33.88;;;8.80;99.90;;;;;;4921674;29;20414;-73
2022/12/26 06:11:16;;;;;;;40.25;33.53;;;8.80;99.90;;;;;;4909653;28;20085;-73
2022/12/26 06:13:45;;;;;;;41.63;36.30;;;8.80;99.90;;;;;;4894995;29;20039;-73
2022/12/26 06:16:16;;;;;;;38.08;33.17;;;8.80;99.90;;;;;;4912384;29;20481;-72
2022/12/26 06:18:42;;;;;;;39.42;33.72;;;8.80;99.90;;;;;;4913120;29;20047;-73
2022/12/26 06:21:10;;;;;;;40.67;33.47;;;8.90;99.90;;;;;;4896325;28;20051;-73
2022/12/26 06:23:38;;;;;;;38.35;33.10;;;8.90;99.90;;;;;;4929495;29;20542;-72
2022/12/26 06:26:04;;;;;;;38.03;32.13;;;8.90;99.90;;;;;;4927867;28;20553;-72
2022/12/26 06:28:32;;;;;;;35.20;31.40;;;8.90;99.90;;;;;;4930376;28;20050;-72
2022/12/26 06:31:21;;;;;;;36.78;32.55;;;8.90;99.90;;;;;;4928287;28;20083;-73
2022/12/26 06:33:50;;;;;;;36.27;30.37;;;8.90;99.90;;;;;;4911210;28;20046;-72
2022/12/26 06:36:21;;;;;;;36.40;32.50;;;9.00;99.90;;;;;;4935890;28;20055;-70
2022/12/26 06:38:47;;;;;;;34.25;29.63;;;8.90;99.90;;;;;;4925155;28;20044;-72
2022/12/26 06:41:17;;;;;;;33.67;29.25;;;9.00;99.90;;;;;;4896814;28;20043;-72
2022/12/26 06:43:43;;;;;;;31.70;28.27;;;9.00;99.90;;;;;;4934934;28;20051;-71
2022/12/26 06:46:13;;;;;;;32.90;28.67;;;9.00;99.90;;;;;;4899815;28;20039;-72
2022/12/26 06:48:39;;;;;;;30.02;26.00;;;9.00;99.90;;;;;;4930210;28;20043;-72
2022/12/26 06:51:11;;;;;;;30.25;27.05;;;9.00;99.90;;;;;;4915822;29;20043;-71
2022/12/26 06:53:36;;;;;;;32.03;28.58;;;9.00;99.90;;;;;;4932143;28;20062;-71
2022/12/26 06:56:11;;;;;;;32.15;27.73;;;9.00;99.90;;;;;;4914343;28;20410;-72
2022/12/26 06:58:38;;;;;;;29.65;26.55;;;9.00;99.90;;;;;;4929928;28;20047;-72
2022/12/26 07:01:10;;;;;;;29.17;26.08;;;9.00;99.90;;;;;;4935118;29;20733;-71
2022/12/26 07:03:36;;;;;;;31.40;27.92;;;9.00;99.90;;;;;;4916100;28;20481;-82
2022/12/26 07:06:07;;;;;;;29.85;26.25;;;9.00;99.90;;;;;;4932262;29;20118;-81
2022/12/26 07:08:32;;;;;;;;;;;9.00;99.90;;;;;;4936797;28;20681;-81
2022/12/26 07:10:58;;;;;;;27.77;24.88;;;9.00;99.90;;;;;;4936214;28;19922;-81
2022/12/26 07:13:24;;;;;;;26.05;23.55;;;9.00;99.90;;;;;;4932679;28;20039;-83
2022/12/26 07:15:50;;;;;;;26.92;24.23;;;9.00;99.90;;;;;;4931938;28;20406;-81
2022/12/26 07:18:16;;;;;;;27.00;23.30;;;9.10;99.90;;;;;;4922864;28;20043;-81
2022/12/26 07:20:41;;;;;;;26.85;24.00;;;9.10;99.90;;;;;;4898415;28;20057;-80
2022/12/26 07:23:07;;;;;;;26.05;22.35;;;9.10;99.90;;;;;;4914609;28;20542;-83
2022/12/26 07:25:36;;;;;;;26.52;23.73;;;9.10;99.90;;;;;;4934351;28;20549;-80
2022/12/26 07:28:02;;;;;;;26.10;23.45;;;9.10;99.90;;;;;;4932308;29;20466;-82
2022/12/26 07:30:28;;;;;;;26.25;23.45;;;9.00;99.90;;;;;;4922146;28;20509;-81
2022/12/26 07:32:54;;;;;;;26.67;23.98;;;9.10;99.90;;;;;;4941043;28;20056;-81
2022/12/26 07:35:22;;;;;;;25.15;22.55;;;9.00;99.90;;;;;;4913513;28;20047;-82
2022/12/26 07:37:48;;;;;;;27.00;24.13;;;9.00;99.90;;;;;;4939649;28;20487;-82
2022/12/26 07:40:14;;;;;;;27.02;24.23;;;9.00;99.90;;;;;;4898069;28;20043;-82
2022/12/26 07:42:40;;;;;;;27.55;23.83;;;9.00;99.90;;;;;;4888793;28;20612;-82
2022/12/26 07:45:07;;;;;;;26.10;23.50;;;9.00;99.90;;;;;;4912488;29;20047;-82
2022/12/26 07:47:32;;;;;;;26.48;23.52;;;9.00;99.90;;;;;;4914826;28;20161;-80
2022/12/26 07:49:58;;;;;;;25.90;23.10;;;9.00;99.90;;;;;;4897093;28;20055;-82
2022/12/26 07:52:24;;;;;;;27.13;23.52;;;9.10;99.90;;;;;;4895889;28;20079;-80
2022/12/26 07:54:50;;;;;;;26.13;23.40;;;9.00;99.90;;;;;;4921652;28;20419;-82
2022/12/26 07:57:15;;;;;;;27.38;24.50;;;9.10;99.90;;;;;;4891059;28;20043;-83
2022/12/26 07:59:41;;;;;;;25.30;22.77;;;9.00;99.90;;;;;;4897478;29;20529;-81
2022/12/26 08:02:09;;;;;;;27.23;23.33;;;9.10;99.90;;;;;;4925460;28;20126;-82
2022/12/26 08:04:35;;;;;;;24.65;22.13;;;9.00;99.90;;;;;;4929331;28;20421;-81
2022/12/26 08:07:01;;;;;;;27.38;24.45;;;9.00;99.90;;;;;;4897911;28;20094;-81
2022/12/26 08:09:26;;;;;;;26.48;23.70;;;9.00;99.90;;;;;;4908167;28;20062;-81
2022/12/26 08:11:52;;;;;;;26.98;24.15;;;9.00;99.90;;;;;;4906159;28;20094;-71
2022/12/26 08:14:18;;;;;;;25.58;22.83;;;8.90;99.90;;;;;;4908605;28;20055;-72
2022/12/26 08:16:44;;;;;;;26.42;22.70;;;8.90;99.90;;;;;;4936937;28;20085;-71
2022/12/26 08:19:10;;;;;;;23.85;21.38;;;8.90;99.90;;;;;;4898011;28;20075;-72
2022/12/26 08:21:36;;;;;;;25.40;22.73;;;8.90;99.90;;;;;;4920605;28;20051;-71
2022/12/26 08:24:06;;;;;;;24.45;21.55;;;8.90;99.90;;;;;;4914787;28;20042;-81
2022/12/26 08:26:31;;;;;;;24.23;19.92;;;8.90;99.90;;;;;;4926656;28;20051;-79
2022/12/26 08:28:57;;;;;;;22.98;19.80;;;8.90;99.90;;;;;;4898518;28;20062;-79
2022/12/26 08:31:26;;;;;;;21.60;19.40;;;8.90;99.90;;;;;;4902759;28;20447;-78
2022/12/26 08:33:55;;;;;;;22.05;19.63;;;9.00;99.90;;;;;;4937384;28;20038;-71
2022/12/26 08:36:22;;;;;;;19.90;17.20;;;9.00;99.90;;;;;;4913111;28;20625;-72
2022/12/26 08:38:47;;;;;;;19.08;17.17;;;9.00;99.90;;;;;;4892433;28;20316;-78
2022/12/26 08:41:16;;;;;;;19.52;17.45;;;9.10;99.90;;;;;;4914072;28;20043;-81
2022/12/26 08:43:42;;;;;;;18.30;16.02;;;9.10;99.90;;;;;;4896356;28;20039;-79
2022/12/26 08:46:10;;;;;;;20.40;15.40;;;9.10;99.90;;;;;;4917782;28;20446;-80
2022/12/26 08:48:37;;;;;;;16.88;14.90;;;9.20;99.90;;;;;;4914826;28;20050;-80
2022/12/26 08:51:06;;;;;;;15.25;13.65;;;9.20;99.90;;;;;;4928923;28;20047;-81
2022/12/26 08:53:34;;;;;;;16.48;12.88;;;9.20;99.90;;;;;;4910724;28;20043;-82
2022/12/26 08:56:01;;;;;;;17.77;13.60;;;9.30;99.90;;;;;;4902239;28;20244;-81
2022/12/26 08:58:27;;;;;;;18.95;12.32;;;9.30;99.90;;;;;;4923780;28;20031;-80
2022/12/26 09:00:53;;;;;;;14.70;12.07;;;9.30;99.90;;;;;;4900820;28;20067;-78
2022/12/26 09:03:19;;;;;;;14.50;10.20;;;9.30;99.90;;;;;;4896781;28;20042;-79
2022/12/26 09:05:45;;;;;;;13.52;9.35;;;9.30;99.90;;;;;;4907819;29;20328;-71
2022/12/26 09:08:12;;;;;;;14.32;9.98;;;9.40;99.90;;;;;;4916706;28;20081;-71
2022/12/26 09:10:38;;;;;;;14.38;10.23;;;9.40;99.90;;;;;;4907637;28;20066;-81
2022/12/26 09:13:04;;;;;;;18.23;10.77;;;9.40;99.90;;;;;;4913237;28;20043;-79
2022/12/26 09:15:30;;;;;;;15.18;9.85;;;9.40;99.90;;;;;;4917442;29;20087;-80
2022/12/26 09:17:56;;;;;;;18.58;10.60;;;9.50;99.90;;;;;;4936752;28;20051;-82
2022/12/26 09:20:21;;;;;;;16.27;11.13;;;9.50;99.90;;;;;;4882881;29;20056;-79
2022/12/26 09:22:50;;;;;;;14.20;11.07;;;9.50;99.90;;;;;;4918074;29;20086;-81
2022/12/26 09:25:18;;;;;;;12.05;10.57;;;9.50;99.90;;;;;;4908330;29;20140;-82
2022/12/26 09:27:44;;;;;;;14.10;11.77;;;9.50;99.90;;;;;;4915353;29;20059;-79
2022/12/26 09:30:10;;;;;;;12.75;11.38;;;9.40;99.90;;;;;;4919173;29;20106;-80
2022/12/26 09:32:36;;;;;;;18.50;11.00;;;9.40;99.90;;;;;;4881974;29;20040;-77
2022/12/26 09:35:02;;;;;;;15.27;12.05;;;9.40;99.90;;;;;;4915523;29;20533;-76
2022/12/26 09:37:28;;;;;;;13.85;10.45;;;9.50;99.90;;;;;;4918507;29;20043;-76
2022/12/26 09:39:54;;;;;;;11.20;9.85;;;9.40;99.90;;;;;;4913738;29;20079;-79
2022/12/26 09:42:34;;;;;;;13.38;8.93;;;9.40;99.90;;;;;;4922731;29;20063;-77
2022/12/26 09:45:17;;;;;;;11.95;9.07;;;9.50;99.90;;;;;;4895235;29;20052;-77
2022/12/26 09:48:14;;;;;;;11.38;8.60;;;9.50;99.90;;;;;;4920150;29;20066;-79
2022/12/26 09:50:41;;;;;;;10.73;7.75;;;9.50;99.90;;;;;;4922891;29;20083;-78
2022/12/26 09:53:14;;;;;;;9.88;7.35;;;9.40;99.90;;;;;;4919829;29;20109;-78
2022/12/26 09:55:43;;;;;;;9.65;7.85;;;9.50;99.90;;;;;;4914428;29;20056;-79
2022/12/26 09:58:24;;;;;;;12.52;9.43;;;9.40;99.90;;;;;;4918647;29;20047;-78
2022/12/26 10:01:02;;;;;;;17.02;7.72;;;9.30;99.90;;;;;;4897046;29;20040;-79
2022/12/26 10:03:29;;;;;;;10.65;6.53;;;9.40;99.90;;;;;;4920064;29;20502;-79
2022/12/26 10:06:06;;;;;;;12.93;4.28;;;9.30;99.90;;;;;;4921009;29;20510;-79
2022/12/26 10:08:44;;;;;;;14.77;3.70;;;9.30;99.90;;;;;;4929532;28;20478;-75
2022/12/26 10:11:34;;;;;;;12.70;3.50;;;9.20;99.90;;;;;;4918994;29;20047;-78
2022/12/26 10:14:28;;;;;;;14.77;3.75;;;9.00;99.90;;;;;;4896332;29;20047;-78
2022/12/26 10:17:42;;;;;;;10.15;2.60;;;8.80;99.90;;;;;;4915134;29;20506;-77
2022/12/26 10:20:32;;;;;;;9.35;2.30;;;8.60;99.90;;;;;;4882185;29;20052;-77
2022/12/26 10:23:10;;;;;;;12.07;2.88;;;8.40;99.90;;;;;;4920164;29;20134;-75
2022/12/26 10:26:07;;;;;;;13.02;2.67;;;8.30;99.90;;;;;;4924080;28;20051;-78
2022/12/26 10:28:45;;;;;;;14.07;2.63;;;8.20;99.90;;;;;;4910055;29;20155;-79
2022/12/26 10:31:31;;;;;;;14.88;2.83;;;8.00;99.90;;;;;;4918822;29;20058;-77
2022/12/26 10:34:27;;;;;;;11.52;2.40;;;8.00;99.90;;;;;;4922353;29;20138;-78
2022/12/26 10:37:27;;;;;;;13.75;2.50;;;8.00;99.90;;;;;;4916817;29;20078;-79
2022/12/26 10:40:08;;;;;;;13.40;2.73;;;7.90;99.90;;;;;;4921975;29;20055;-70
2022/12/26 10:42:43;;;;;;;11.98;2.72;;;7.90;99.90;;;;;;4914751;29;20047;-68
2022/12/26 10:45:59;;;;;;;10.25;2.75;;;7.90;99.90;;;;;;4895696;29;20790;-69
2022/12/26 10:48:28;;;;;;;15.43;3.10;;;7.90;99.90;;;;;;4915765;29;20043;-69
2022/12/26 10:50:55;;;;;;;10.30;2.53;;;8.00;99.90;;;;;;4892912;29;20158;-69
2022/12/26 10:53:20;;;;;;;12.90;2.47;;;7.90;99.90;;;;;;4898028;29;20056;-69
2022/12/26 10:55:46;;;;;;;9.30;1.98;;;8.00;99.90;;;;;;4921983;29;20050;-70
2022/12/26 10:58:20;;;;;;;12.10;2.58;;;8.00;99.90;;;;;;4902282;29;20185;-69
2022/12/26 11:00:46;;;;;;;13.18;2.25;;;8.00;99.90;;;;;;4902702;29;20494;-69
2022/12/26 11:03:17;;;;;;;10.35;2.00;;;7.90;99.90;;;;;;4905945;29;20604;-69
2022/12/26 11:05:46;;;;;;;10.32;1.77;;;7.90;99.90;;;;;;4930676;28;20059;-70
2022/12/26 11:08:17;;;;;;;10.52;2.08;;;7.90;99.90;;;;;;4897830;29;20413;-69
2022/12/26 11:11:05;;;;;;;10.65;2.40;;;7.80;99.90;;;;;;4923561;29;20086;-69
2022/12/26 11:13:37;;;;;;;13.18;2.40;;;7.70;99.90;;;;;;4917379;29;20498;-69
2022/12/26 11:16:04;;;;;;;9.40;1.88;;;7.60;99.90;;;;;;4923333;29;20062;-69
2022/12/26 11:18:45;;;;;;;11.05;2.20;;;7.50;99.90;;;;;;4921951;28;20102;-69
2022/12/26 11:21:17;;;;;;;11.43;2.45;;;7.50;99.90;;;;;;4914126;28;20043;-70
2022/12/26 11:23:47;;;;;;;10.50;2.10;;;7.60;99.90;;;;;;4914704;29;20126;-69
2022/12/26 11:26:39;;;;;;;12.95;2.33;;;7.50;99.90;;;;;;4905521;28;20062;-70
2022/12/26 11:29:13;;;;;;;7.13;1.35;;;7.60;99.90;;;;;;4917208;28;20518;-69
2022/12/26 11:32:00;;;;;;;10.70;1.60;;;7.60;99.90;;;;;;4918439;28;20051;-69
2022/12/26 11:34:44;;;;;;;9.80;1.60;;;7.60;99.90;;;;;;4922395;29;20491;-69
2022/12/26 11:37:27;;;;;;;11.18;1.80;;;7.60;99.90;;;;;;4922660;28;20561;-69
2022/12/26 11:39:54;;;;;;;10.55;2.03;;;7.60;99.90;;;;;;4926905;29;20524;-70
2022/12/26 11:42:22;;;;;;;10.15;2.33;;;7.60;99.90;;;;;;4926930;28;20529;-70
2022/12/26 11:44:51;;;;;;;11.10;2.55;;;7.60;99.90;;;;;;4926864;29;20542;-69
2022/12/26 11:47:27;;;;;;;13.57;2.10;;;7.60;99.90;;;;;;4924542;28;20420;-69
2022/12/26 11:50:03;;;;;;;12.35;2.30;;;7.70;99.90;;;;;;4907799;29;20498;-69
2022/12/26 11:52:29;;;;;;;10.30;2.33;;;7.60;99.90;;;;;;4921127;29;20078;-77
2022/12/26 11:54:55;;;;;;;12.70;2.47;;;7.70;99.90;;;;;;4921722;28;20091;-77
2022/12/26 11:57:30;;;;;;;10.73;2.38;;;7.60;99.90;;;;;;4909332;28;20087;-78
2022/12/26 12:00:18;;;;;;;11.45;2.35;;;7.60;99.90;;;;;;4913909;29;20055;-77
2022/12/26 12:02:47;;;;;;;15.20;3.85;;;7.50;99.90;;;;;;4931410;29;20336;-77
2022/12/26 12:05:21;;;;;;;11.43;2.42;;;7.50;99.90;;;;;;4918339;28;20059;-77
2022/12/26 12:07:56;;;;;;;11.88;2.67;;;7.50;99.90;;;;;;4904878;28;20078;-77
2022/12/26 12:10:38;;;;;;;13.70;2.90;;;7.60;99.90;;;;;;4917498;28;20050;-78
2022/12/26 12:13:30;;;;;;;10.60;1.98;;;7.60;99.90;;;;;;4918195;28;20047;-77
2022/12/26 12:16:18;;;;;;;12.95;3.17;;;7.60;99.90;;;;;;4916815;28;20055;-77
2022/12/26 12:19:05;;;;;;;10.65;2.40;;;7.70;99.90;;;;;;4933616;28;20043;-77
2022/12/26 12:21:34;;;;;;;12.50;2.75;;;7.70;99.90;;;;;;4929529;28;20065;-76
2022/12/26 12:24:03;;;;;;;13.35;3.38;;;7.80;99.90;;;;;;4934750;28;20397;-78
2022/12/26 12:26:45;;;;;;;12.48;2.40;;;7.90;99.90;;;;;;4940176;28;20401;-78
2022/12/26 12:29:16;;;;;;;11.57;2.47;;;7.80;99.90;;;;;;4913497;28;20106;-77
2022/12/26 12:31:54;;;;;;;13.57;2.92;;;7.90;99.90;;;;;;4928007;28;20069;-78
2022/12/26 12:34:36;;;;;;;13.10;2.47;;;7.80;99.90;;;;;;4932786;28;20512;-77
2022/12/26 12:37:30;;;;;;;14.98;2.58;;;7.80;99.90;;;;;;4919393;29;20079;-77
2022/12/26 12:40:33;;;;;;;12.77;2.78;;;7.80;99.90;;;;;;4927020;28;20051;-77
2022/12/26 12:43:31;;;;;;;13.05;3.08;;;7.70;99.90;;;;;;4922622;28;20099;-77
2022/12/26 12:46:08;;;;;;;16.88;2.90;;;7.60;99.90;;;;;;4860747;28;20382;-77
2022/12/26 12:48:40;;;;;;;13.10;3.22;;;7.50;99.90;;;;;;4943903;28;20105;-77
2022/12/26 12:51:16;;;;;;;12.55;2.70;;;7.40;99.90;;;;;;4936108;28;20114;-78
2022/12/26 12:53:54;;;;;;;15.82;3.38;;;7.40;99.90;;;;;;4901231;28;20134;-78
2022/12/26 12:56:45;;;;;;;10.90;2.70;;;7.30;99.90;;;;;;4934311;28;20077;-78
2022/12/26 12:59:16;;;;;;;9.80;2.25;;;7.30;99.90;;;;;;4925234;28;20683;-78
2022/12/26 13:01:46;;;;;;;11.85;2.53;;;7.30;99.90;;;;;;4922939;28;20506;-78
2022/12/26 13:04:31;;;;;;;14.48;3.38;;;7.40;99.90;;;;;;4924702;28;20051;-78
2022/12/26 13:07:10;;;;;;;12.65;2.10;;;7.40;99.90;;;;;;4922762;28;20066;-78
2022/12/26 13:09:48;;;;;;;16.58;2.88;;;7.40;99.90;;;;;;4922425;28;20907;-78
2022/12/26 13:12:20;;;;;;;14.98;2.95;;;7.40;99.90;;;;;;4919289;28;20243;-79
2022/12/26 13:14:51;;;;;;;14.60;2.88;;;7.40;99.90;;;;;;4923285;28;20619;-78
2022/12/26 13:17:22;;;;;;;12.95;2.88;;;7.40;99.90;;;;;;4906731;28;20418;-78
2022/12/26 13:20:17;;;;;;;18.13;2.97;;;7.40;99.90;;;;;;4937790;28;20259;-78
2022/12/26 13:25:52;;;;;;;11.95;2.50;;;7.40;99.90;;;;;;4921346;29;20674;-77
2022/12/26 13:28:26;;;;;;;14.18;3.28;;;7.50;99.90;;;;;;4920022;29;20479;-77
2022/12/26 13:30:55;;;;;;;17.00;3.45;;;7.50;99.90;;;;;;4921361;29;20067;-77
2022/12/26 13:33:22;;;;;;;14.18;2.50;;;7.50;99.90;;;;;;4900263;29;20494;-77
2022/12/26 13:35:53;;;;;;;15.40;3.22;;;7.50;99.90;;;;;;4919789;29;20051;-77
2022/12/26 13:38:20;;;;;;;13.75;3.20;;;7.50;99.90;;;;;;4893964;29;20040;-77
2022/12/26 13:44:00;;;;;;;15.23;2.63;;;7.50;99.90;;;;;;4924518;28;20254;-77
2022/12/26 13:46:41;;;;;;;15.60;4.68;;;7.40;99.90;;;;;;4923336;28;20426;-77
2022/12/26 13:49:38;;;;;;;14.07;3.17;;;7.40;99.90;;;;;;4908153;29;20455;-77
2022/12/26 13:52:10;;;;;;;15.93;3.17;;;7.40;99.90;;;;;;4899215;29;20333;-77
2022/12/26 13:55:05;;;;;;;12.98;2.88;;;7.40;99.90;;;;;;4906462;29;20495;-77
2022/12/26 13:57:43;;;;;;;12.82;2.40;;;7.30;99.90;;;;;;4900955;28;20094;-77
2022/12/26 14:00:43;;;;;;;12.77;2.60;;;7.30;99.90;;;;;;4927454;29;20074;-77
2022/12/26 14:03:35;;;;;;;15.18;3.45;;;7.30;99.90;;;;;;4918152;29;20225;-77
2022/12/26 14:06:18;;;;;;;12.60;2.70;;;7.30;99.90;;;;;;4915785;29;20404;-77
2022/12/26 14:09:06;;;;;;;13.48;2.70;;;7.20;99.90;;;;;;4923725;29;20138;-77
2022/12/26 14:12:01;;;;;;;11.82;2.55;;;7.20;99.90;;;;;;4903565;29;20044;-77
2022/12/26 14:14:36;;;;;;;14.27;2.97;;;7.30;99.90;;;;;;4921472;29;20079;-77
2022/12/26 14:17:22;;;;;;;14.57;2.97;;;7.20;99.90;;;;;;4895462;29;20051;-78
2022/12/26 14:20:15;;;;;;;11.52;2.70;;;7.20;99.90;;;;;;4919387;29;20083;-77
2022/12/26 14:23:01;;;;;;;8.95;2.08;;;7.20;99.90;;;;;;4912001;29;20534;-70
2022/12/26 14:25:46;;;;;;;14.55;3.00;;;7.20;99.90;;;;;;4914351;29;20139;-70
2022/12/26 14:28:24;;;;;;;11.20;2.90;;;7.20;99.90;;;;;;4921382;29;20071;-69
2022/12/26 14:31:03;;;;;;;13.60;2.47;;;7.20;99.90;;;;;;4910105;29;20054;-70
2022/12/26 14:33:37;;;;;;;10.45;2.50;;;7.20;99.90;;;;;;4907600;29;20052;-70
2022/12/26 14:36:21;;;;;;;11.30;2.72;;;7.10;99.90;;;;;;4919081;29;20060;-70
2022/12/26 14:38:57;;;;;;;11.52;2.78;;;7.00;99.90;;;;;;4923356;29;20091;-70
2022/12/26 14:44:20;;;;;;;16.23;2.60;;;6.90;99.90;;;;;;4928256;28;20051;-70
2022/12/26 14:46:49;;;;;;;13.13;2.67;;;6.90;99.90;;;;;;4906021;29;20586;-70
2022/12/26 14:49:31;;;;;;;17.20;3.10;;;6.80;99.90;;;;;;4924796;29;20510;-70
2022/12/26 14:52:42;;;;;;;15.15;3.08;;;6.70;99.90;;;;;;4906464;29;20068;-70
2022/12/26 14:55:45;;;;;;;13.05;2.47;;;6.70;99.90;;;;;;4897915;29;20059;-70
2022/12/26 14:58:36;;;;;;;17.23;3.58;;;6.60;99.90;;;;;;4888797;29;20063;-69
2022/12/26 15:01:16;;;;;;;14.68;3.42;;;6.60;99.90;;;;;;4907442;29;20062;-70
2022/12/26 15:04:04;;;;;;;15.80;3.50;;;6.50;99.90;;;;;;4922348;28;20050;-70
2022/12/26 15:06:42;;;;;;;9.48;2.42;;;6.50;99.90;;;;;;4906272;29;20044;-70
2022/12/26 15:09:33;;;;;;;12.13;2.42;;;6.50;99.90;;;;;;4918093;29;20418;-76
2022/12/26 15:12:34;;;;;;;;;;;6.50;99.90;;;;;;4941621;28;20055;-77
2022/12/26 15:15:32;;;;;;;14.38;2.80;;;6.40;99.90;;;;;;4914705;29;19933;-76
2022/12/26 15:18:19;;;;;;;11.60;2.70;;;6.40;99.90;;;;;;4925617;29;20154;-76
2022/12/26 15:21:36;;;;;;;12.38;2.63;;;6.40;99.90;;;;;;4914333;29;20126;-76
2022/12/26 15:24:23;;;;;;;12.50;2.45;;;6.30;99.90;;;;;;4890168;29;20550;-77
2022/12/26 15:27:13;;;;;;;11.57;2.45;;;6.30;99.90;;;;;;4890220;29;20076;-76